createdAt,value
2018-06-08T00:01:23.921Z,11.68
2018-06-08T00:03:52.349Z,10.32
2018-06-08T00:16:05.820Z,10.58
2018-06-08T00:18:38.607Z,10.98
2018-06-08T00:21:07.041Z,10.95
2018-06-08T00:23:35.478Z,11.28
2018-06-08T00:26:04.692Z,10.70
2018-06-08T00:28:33.076Z,10.35
2018-06-08T00:31:01.510Z,11.25
2018-06-08T00:33:29.920Z,11.18
2018-06-08T00:35:59.149Z,11.45
2018-06-08T00:38:27.635Z,10.53
2018-06-08T00:40:56.039Z,12.33
2018-06-08T00:43:24.538Z,11.12
2018-06-08T00:45:53.896Z,11.22
2018-06-08T00:48:22.393Z,11.22
2018-06-08T00:50:50.832Z,11.75
2018-06-08T00:53:19.305Z,12.80
2018-06-08T00:55:47.737Z,12.05
2018-06-08T00:58:16.166Z,11.68
2018-06-08T01:00:45.418Z,11.45
2018-06-08T01:03:14.169Z,12.07
2018-06-08T01:05:44.025Z,11.68
2018-06-08T01:08:12.651Z,12.00
2018-06-08T01:10:41.121Z,11.65
2018-06-08T01:13:12.836Z,13.08
2018-06-08T01:15:42.068Z,12.13
2018-06-08T01:18:10.477Z,11.75
2018-06-08T01:20:38.916Z,12.53
2018-06-08T01:23:07.344Z,13.00
2018-06-08T01:25:35.741Z,12.53
2018-06-08T01:28:04.441Z,12.03
2018-06-08T01:30:32.840Z,12.03
2018-06-08T01:33:01.765Z,12.55
2018-06-08T01:35:30.545Z,12.40
2018-06-08T01:38:00.078Z,12.47
2018-06-08T01:40:29.417Z,12.63
2018-06-08T01:42:58.152Z,13.45
2018-06-08T01:45:28.120Z,13.13
2018-06-08T01:47:56.772Z,12.68
2018-06-08T01:50:25.828Z,13.80
2018-06-08T01:52:54.433Z,13.40
2018-06-08T01:55:24.546Z,13.62
2018-06-08T01:57:53.982Z,13.13
2018-06-08T02:00:26.915Z,13.83
2018-06-08T02:02:55.347Z,12.98
2018-06-08T02:05:24.594Z,13.38
2018-06-08T02:07:53.020Z,13.45
2018-06-08T02:10:23.678Z,12.82
2018-06-08T02:12:52.141Z,14.20
2018-06-08T02:15:20.546Z,14.10
2018-06-08T02:17:49.049Z,14.07
2018-06-08T02:20:18.072Z,14.28
2018-06-08T02:22:46.785Z,14.95
2018-06-08T02:25:16.170Z,14.47
2018-06-08T02:27:44.604Z,15.20
2018-06-08T02:30:13.615Z,14.38
2018-06-08T02:32:42.013Z,14.33
2018-06-08T02:35:11.409Z,13.95
2018-06-08T02:37:39.850Z,14.43
2018-06-08T02:40:08.337Z,14.95
2018-06-08T02:42:36.753Z,15.75
2018-06-08T02:45:05.459Z,15.30
2018-06-08T02:47:33.949Z,14.55
2018-06-08T02:50:02.501Z,14.65
2018-06-08T02:52:31.814Z,15.55
2018-06-08T02:55:00.725Z,15.48
2018-06-08T02:57:29.141Z,16.20
2018-06-08T02:59:58.723Z,17.10
2018-06-08T03:02:28.965Z,15.85
2018-06-08T03:04:57.389Z,14.98
2018-06-08T03:07:25.845Z,15.70
2018-06-08T03:09:59.513Z,14.75
2018-06-08T03:12:27.954Z,15.30
2018-06-08T03:14:57.113Z,15.55
2018-06-08T03:17:26.925Z,15.10
2018-06-08T03:19:56.246Z,16.27
2018-06-08T03:22:24.737Z,15.43
2018-06-08T03:24:53.241Z,15.43
2018-06-08T03:27:22.537Z,17.10
2018-06-08T03:29:50.976Z,16.25
2018-06-08T03:32:19.486Z,16.80
2018-06-08T03:34:53.181Z,14.90
2018-06-08T03:37:22.550Z,17.80
2018-06-08T03:39:50.990Z,18.37
2018-06-08T03:42:19.488Z,16.27
2018-06-08T03:44:47.909Z,15.30
2018-06-08T03:47:16.373Z,15.68
2018-06-08T03:49:45.471Z,14.95
2018-06-08T03:52:15.385Z,14.58
2018-06-08T03:54:43.865Z,14.80
2018-06-08T03:57:16.510Z,14.13
2018-06-08T03:59:44.905Z,14.47
2018-06-08T04:02:18.176Z,14.73
2018-06-08T04:04:46.585Z,14.15
2018-06-08T04:07:15.057Z,14.40
2018-06-08T04:09:43.517Z,16.30
2018-06-08T04:12:11.949Z,14.58
2018-06-08T04:14:40.974Z,14.05
2018-06-08T04:17:09.478Z,13.70
2018-06-08T04:19:37.905Z,15.05
2018-06-08T04:22:06.319Z,15.48
2018-06-08T04:24:34.435Z,18.05
2018-06-08T04:27:02.900Z,16.65
2018-06-08T04:29:31.917Z,15.70
2018-06-08T04:32:00.314Z,13.78
2018-06-08T04:34:29.059Z,14.60
2018-06-08T04:36:57.642Z,14.98
2018-06-08T04:39:26.073Z,14.23
2018-06-08T04:41:54.701Z,14.95
2018-06-08T04:44:23.172Z,14.85
2018-06-08T04:46:51.583Z,14.85
2018-06-08T04:49:20.017Z,15.32
2018-06-08T04:51:48.457Z,14.00
2018-06-08T04:54:16.917Z,14.30
2018-06-08T04:56:49.709Z,15.58
2018-06-08T04:59:18.537Z,14.33
2018-06-08T05:01:47.027Z,15.93
2018-06-08T05:04:15.941Z,19.07
2018-06-08T05:06:44.333Z,14.98
2018-06-08T05:09:18.001Z,15.38
2018-06-08T05:11:46.494Z,14.55
2018-06-08T05:14:14.933Z,14.70
2018-06-08T05:16:43.335Z,15.53
2018-06-08T05:19:12.065Z,19.40
2018-06-08T05:21:40.600Z,15.00
2018-06-08T05:24:09.033Z,14.05
2018-06-08T05:26:37.564Z,15.45
2018-06-08T05:29:06.004Z,14.43
2018-06-08T05:31:34.421Z,14.10
2018-06-08T05:34:02.876Z,15.83
2018-06-08T05:36:31.934Z,14.18
2018-06-08T05:39:01.318Z,14.68
2018-06-08T05:41:29.746Z,14.07
2018-06-08T05:43:59.033Z,13.58
2018-06-08T05:46:27.752Z,13.72
2018-06-08T06:02:02.345Z,13.88
2018-06-08T06:04:30.761Z,12.60
2018-06-08T06:06:59.873Z,14.10
2018-06-08T06:09:29.226Z,14.53
2018-06-08T06:11:57.689Z,14.63
2018-06-08T06:14:26.156Z,14.28
2018-06-08T06:16:55.016Z,15.13
2018-06-08T06:19:23.409Z,14.60
2018-06-08T06:21:51.841Z,15.18
2018-06-08T06:24:21.072Z,14.63
2018-06-08T06:26:49.496Z,15.38
2018-06-08T06:29:17.934Z,14.58
2018-06-08T06:31:46.465Z,15.28
2018-06-08T06:34:14.934Z,14.93
2018-06-08T06:36:43.389Z,14.30
2018-06-08T06:39:11.900Z,14.80
2018-06-08T06:41:40.946Z,14.43
2018-06-08T06:44:14.687Z,13.58
2018-06-08T06:46:43.152Z,15.00
2018-06-08T06:49:11.623Z,12.98
2018-06-08T06:51:40.057Z,13.03
2018-06-08T06:54:09.591Z,14.23
2018-06-08T06:56:38.596Z,13.38
2018-06-08T06:59:07.250Z,14.20
2018-06-08T07:01:36.191Z,14.55
2018-06-08T07:04:04.655Z,14.07
2018-06-08T07:06:33.125Z,13.62
2018-06-08T07:09:01.687Z,12.33
2018-06-08T07:11:31.051Z,13.90
2018-06-08T07:14:00.117Z,13.78
2018-06-08T07:16:29.156Z,14.45
2018-06-08T07:18:58.113Z,13.18
2018-06-08T07:21:26.592Z,12.93
2018-06-08T07:23:55.486Z,13.28
2018-06-08T07:26:24.030Z,13.90
2018-06-08T07:28:52.444Z,14.33
2018-06-08T07:31:20.901Z,13.72
2018-06-08T07:33:49.518Z,13.38
2018-06-08T07:36:19.169Z,12.58
2018-06-08T07:38:51.690Z,12.40
2018-06-08T07:41:20.123Z,16.87
2018-06-08T07:43:49.342Z,13.58
2018-06-08T07:46:17.762Z,12.15
2018-06-08T07:48:46.409Z,13.32
2018-06-08T07:51:14.931Z,13.10
2018-06-08T07:53:43.383Z,12.75
2018-06-08T07:56:11.946Z,12.80
2018-06-08T07:58:40.473Z,12.45
2018-06-08T08:01:09.780Z,12.20
2018-06-08T08:03:39.395Z,12.05
2018-06-08T08:06:07.949Z,13.30
2018-06-08T08:08:36.670Z,13.95
2018-06-08T08:11:05.137Z,12.37
2018-06-08T08:13:33.947Z,12.00
2018-06-08T08:16:02.456Z,12.47
2018-06-08T08:18:31.638Z,14.07
2018-06-08T08:21:04.709Z,12.73
2018-06-08T08:23:33.772Z,11.80
2018-06-08T08:26:03.233Z,12.63
2018-06-08T08:28:31.694Z,12.18
2018-06-08T08:31:00.671Z,11.40
2018-06-08T08:33:29.231Z,11.65
2018-06-08T08:35:58.072Z,12.18
2018-06-08T08:38:27.134Z,10.55
2018-06-08T08:40:55.528Z,11.08
2018-06-08T08:43:23.996Z,11.15
2018-06-08T08:45:52.479Z,11.83
2018-06-08T08:48:22.009Z,11.45
2018-06-08T08:50:51.442Z,14.40
2018-06-08T08:53:20.360Z,9.83
2018-06-08T08:55:48.998Z,9.53
2018-06-08T08:58:17.446Z,9.50
2018-06-08T09:00:46.044Z,14.43
2018-06-08T09:03:15.809Z,12.18
2018-06-08T09:05:44.861Z,12.45
2018-06-08T09:08:13.440Z,10.78
2018-06-08T09:11:13.864Z,11.00
2018-06-08T09:13:42.287Z,11.73
2018-06-08T09:16:11.191Z,10.80
2018-06-08T09:18:39.620Z,11.63
2018-06-08T09:21:09.282Z,10.45
2018-06-08T09:23:37.742Z,10.25
2018-06-08T09:26:06.218Z,13.10
2018-06-08T09:28:34.636Z,13.58
2018-06-08T09:31:07.174Z,9.35
2018-06-08T09:33:39.847Z,12.60
2018-06-08T09:36:09.072Z,8.85
2018-06-08T09:38:37.537Z,11.18
2018-06-08T09:41:07.009Z,11.57
2018-06-08T09:43:36.829Z,13.80
2018-06-08T09:46:10.248Z,12.53
2018-06-08T09:48:39.656Z,10.05
2018-06-08T09:51:12.678Z,13.15
2018-06-08T09:53:41.822Z,11.53
2018-06-08T09:56:11.115Z,10.88
2018-06-08T09:58:41.497Z,14.35
2018-06-08T10:10:55.632Z,8.85
2018-06-08T10:13:24.062Z,9.55
2018-06-08T10:15:53.009Z,10.90
2018-06-08T10:18:22.597Z,10.78
2018-06-08T10:30:41.085Z,9.80
2018-06-08T10:33:09.524Z,8.40
2018-06-08T10:35:38.097Z,7.58
2018-06-08T10:38:06.549Z,9.23
2018-06-08T10:40:39.245Z,7.97
2018-06-08T10:43:07.713Z,7.85
2018-06-08T10:45:36.602Z,8.00
2018-06-08T10:48:05.300Z,8.68
2018-06-08T10:50:38.137Z,8.18
2018-06-08T10:53:06.618Z,9.58
2018-06-08T10:55:35.096Z,6.60
2018-06-08T10:58:03.828Z,8.93
2018-06-08T11:00:32.280Z,7.53
2018-06-08T11:03:00.747Z,6.83
2018-06-08T11:05:29.954Z,6.50
2018-06-08T11:07:58.366Z,7.95
2018-06-08T11:10:26.810Z,7.12
2018-06-08T11:12:55.265Z,6.83
2018-06-08T11:15:23.737Z,7.17
2018-06-08T11:30:58.213Z,7.78
2018-06-08T11:33:26.993Z,7.58
2018-06-08T11:35:59.822Z,6.92
2018-06-08T11:38:28.266Z,6.95
2018-06-08T11:40:56.804Z,7.55
2018-06-08T11:43:25.257Z,7.95
2018-06-08T11:45:54.096Z,7.50
2018-06-08T11:48:22.504Z,11.30
2018-06-08T11:50:50.997Z,7.95
2018-06-08T11:53:19.485Z,8.55
2018-06-08T11:55:48.037Z,8.48
2018-06-08T11:58:16.898Z,8.58
2018-06-08T12:00:45.361Z,11.22
2018-06-08T12:03:14.914Z,9.95
2018-06-08T12:05:48.088Z,8.68
2018-06-08T12:08:17.725Z,8.28
2018-06-08T12:10:47.994Z,7.70
2018-06-08T12:13:17.820Z,8.78
2018-06-08T12:25:32.408Z,10.75
2018-06-08T12:28:02.047Z,8.70
2018-06-08T12:30:31.325Z,8.25
2018-06-08T12:33:04.325Z,9.08
2018-06-08T12:35:33.115Z,8.70
2018-06-08T12:38:02.633Z,8.05
2018-06-08T12:40:31.409Z,8.48
2018-06-08T12:42:59.844Z,7.65
2018-06-08T12:48:18.545Z,8.98
2018-06-08T12:50:47.581Z,8.58
2018-06-08T12:53:21.002Z,8.48
2018-06-08T12:55:49.509Z,8.53
2018-06-08T12:58:19.151Z,9.78
2018-06-08T13:00:47.626Z,8.10
2018-06-08T13:03:19.834Z,8.48
2018-06-08T13:05:50.708Z,8.85
2018-06-08T13:08:19.233Z,8.23
2018-06-08T13:10:48.116Z,8.00
2018-06-08T13:13:17.219Z,8.25
2018-06-08T13:15:45.752Z,7.75
2018-06-08T13:18:14.103Z,7.90
2018-06-08T13:20:43.615Z,8.45
2018-06-08T13:23:11.827Z,8.38
2018-06-08T13:25:44.155Z,8.38
2018-06-08T13:28:14.481Z,8.13
2018-06-08T13:30:48.365Z,7.62
2018-06-08T13:39:35.788Z,9.20
2018-06-08T13:42:07.105Z,7.70
2018-06-08T13:44:40.634Z,8.98
2018-06-08T13:47:09.936Z,8.40
2018-06-08T13:49:38.838Z,8.43
2018-06-08T13:52:07.309Z,8.98
2018-06-08T13:54:35.825Z,8.70
2018-06-08T13:57:04.310Z,9.60
2018-06-08T13:59:33.823Z,8.35
2018-06-08T14:02:03.812Z,8.68
2018-06-08T14:04:36.925Z,7.97
2018-06-08T14:07:05.674Z,10.13
2018-06-08T14:09:41.085Z,7.90
2018-06-08T14:12:11.785Z,7.87
2018-06-08T14:14:40.225Z,9.50
2018-06-08T14:20:07.801Z,9.45
2018-06-08T14:22:36.504Z,8.70
2018-06-08T14:27:49.333Z,8.45
2018-06-08T14:30:17.918Z,8.45
2018-06-08T14:32:46.761Z,9.33
2018-06-08T14:35:15.190Z,9.75
2018-06-08T14:37:44.597Z,9.95
2018-06-08T14:40:13.062Z,14.93
2018-06-08T14:42:41.490Z,14.40
2018-06-08T14:45:10.046Z,11.43
2018-06-08T14:47:38.532Z,14.25
2018-06-08T14:50:07.517Z,9.95
2018-06-08T14:52:36.110Z,9.10
2018-06-08T14:55:05.431Z,9.33
2018-06-08T14:57:33.962Z,10.70
2018-06-08T15:00:03.809Z,9.40
2018-06-08T15:02:32.255Z,9.00
2018-06-08T15:05:00.844Z,8.63
2018-06-08T15:07:29.005Z,9.08
2018-06-08T15:09:57.530Z,9.35
2018-06-08T15:12:28.205Z,9.20
2018-06-08T15:14:57.336Z,9.63
2018-06-08T15:17:25.811Z,10.65
2018-06-08T15:19:55.091Z,8.95
2018-06-08T15:22:23.534Z,8.95
2018-06-08T15:24:53.160Z,9.55
2018-06-08T15:27:22.246Z,9.23
2018-06-08T15:29:51.424Z,11.20
2018-06-08T15:32:24.554Z,8.88
2018-06-08T15:34:53.001Z,8.50
2018-06-08T15:37:21.673Z,9.15
2018-06-08T15:39:52.345Z,9.55
2018-06-08T15:42:21.370Z,9.20
2018-06-08T15:44:50.664Z,8.33
2018-06-08T15:47:19.156Z,9.95
2018-06-08T15:49:47.748Z,8.78
2018-06-08T15:52:16.200Z,10.10
2018-06-08T15:54:49.450Z,10.75
2018-06-08T15:57:22.017Z,10.18
2018-06-08T15:59:50.501Z,10.72
2018-06-08T16:02:19.514Z,9.60
2018-06-08T16:17:48.050Z,9.33
2018-06-08T16:20:16.607Z,10.15
2018-06-08T16:22:45.387Z,9.65
2018-06-08T16:25:13.912Z,9.60
2018-06-08T16:27:42.645Z,10.03
2018-06-08T16:30:11.131Z,10.70
2018-06-08T16:32:39.563Z,9.53
2018-06-08T16:35:08.817Z,10.60
2018-06-08T16:37:37.410Z,9.90
2018-06-08T16:40:05.922Z,13.68
2018-06-08T16:42:34.374Z,10.58
2018-06-08T16:45:06.899Z,10.00
2018-06-08T16:47:35.340Z,10.20
2018-06-08T16:50:03.866Z,11.03
2018-06-08T16:52:32.290Z,11.00
2018-06-08T16:55:00.737Z,10.45
2018-06-08T16:57:29.242Z,11.65
2018-06-08T16:59:57.709Z,10.45
2018-06-08T17:02:26.146Z,11.33
2018-06-08T17:04:54.638Z,11.12
2018-06-08T17:07:23.108Z,13.90
2018-06-08T17:09:51.532Z,11.12
2018-06-08T17:12:19.985Z,10.28
2018-06-08T17:14:48.774Z,10.30
2018-06-08T17:17:18.826Z,10.00
2018-06-08T17:19:47.280Z,11.40
2018-06-08T17:22:15.729Z,11.40
2018-06-08T17:24:44.397Z,10.90
2018-06-08T17:27:12.855Z,14.95
2018-06-08T17:29:41.297Z,11.48
2018-06-08T17:32:09.733Z,13.08
2018-06-08T17:34:38.163Z,11.28
2018-06-08T17:37:06.792Z,11.10
2018-06-08T17:39:35.948Z,10.93
2018-06-08T17:42:04.404Z,12.10
2018-06-08T17:44:32.953Z,11.33
2018-06-08T17:47:01.450Z,12.63
2018-06-08T17:49:29.921Z,13.98
2018-06-08T17:51:58.513Z,11.88
2018-06-08T17:54:27.769Z,12.37
2018-06-08T17:56:56.205Z,12.23
2018-06-08T17:59:24.685Z,13.58
2018-06-08T18:01:53.249Z,11.83
2018-06-08T18:04:21.732Z,12.55
2018-06-08T18:06:50.218Z,13.38
2018-06-08T18:09:18.727Z,12.80
2018-06-08T18:11:48.167Z,13.25
2018-06-08T18:14:16.653Z,12.43
2018-06-08T18:16:46.015Z,12.80
2018-06-08T18:19:14.462Z,12.63
2018-06-08T18:21:47.802Z,11.78
2018-06-08T18:24:16.366Z,12.88
2018-06-08T18:26:44.889Z,12.45
2018-06-08T18:29:13.501Z,13.80
2018-06-08T18:31:41.948Z,13.62
2018-06-08T18:34:10.425Z,12.45
2018-06-08T18:36:39.483Z,13.60
2018-06-08T18:39:08.651Z,13.80
2018-06-08T18:41:37.281Z,13.88
2018-06-08T18:44:06.115Z,15.00
2018-06-08T18:46:39.165Z,16.25
2018-06-08T18:49:08.205Z,16.25
2018-06-08T18:51:37.071Z,14.60
2018-06-08T18:54:05.667Z,13.70
2018-06-08T18:56:34.126Z,15.72
2018-06-08T18:59:03.177Z,13.88
2018-06-08T19:01:36.066Z,15.53
2018-06-08T19:04:04.770Z,15.80
2018-06-08T19:06:33.239Z,14.98
2018-06-08T19:09:01.869Z,16.25
2018-06-08T19:11:31.006Z,15.70
2018-06-08T19:13:59.784Z,16.45
2018-06-08T19:16:28.412Z,15.55
2018-06-08T19:18:56.893Z,17.02
2018-06-08T19:21:25.395Z,15.55
2018-06-08T19:23:53.851Z,17.20
2018-06-08T19:26:22.346Z,15.90
2018-06-08T19:28:50.830Z,15.85
2018-06-08T19:31:19.417Z,16.55
2018-06-08T19:33:47.832Z,16.65
2018-06-08T19:36:16.445Z,17.42
2018-06-08T19:38:45.651Z,17.50
2018-06-08T19:41:14.111Z,16.77
2018-06-08T19:43:42.578Z,18.98
2018-06-08T19:46:11.048Z,17.05
2018-06-08T19:48:39.480Z,17.90
2018-06-08T19:51:07.980Z,17.85
2018-06-08T19:53:36.747Z,18.05
2018-06-08T19:56:05.235Z,19.52
2018-06-08T19:58:33.666Z,16.85
2018-06-08T20:01:02.353Z,17.77
2018-06-08T20:03:30.811Z,17.27
2018-06-08T20:05:59.535Z,17.23
2018-06-08T20:08:28.032Z,17.10
2018-06-08T20:10:56.456Z,18.50
2018-06-08T20:13:26.519Z,20.48
2018-06-08T20:15:55.007Z,17.30
2018-06-08T20:18:23.520Z,18.60
2018-06-08T20:20:52.090Z,19.32
2018-06-08T20:23:20.685Z,17.40
2018-06-08T20:25:49.198Z,17.32
2018-06-08T20:28:17.725Z,17.07
2018-06-08T20:30:46.544Z,19.57
2018-06-08T20:33:15.037Z,18.73
2018-06-08T20:35:43.528Z,18.48
2018-06-08T20:38:17.052Z,18.23
2018-06-08T20:40:46.331Z,19.37
2018-06-08T20:43:15.014Z,21.10
2018-06-08T20:45:45.552Z,17.60
2018-06-08T20:48:14.026Z,17.90
2018-06-08T20:50:42.488Z,17.75
2018-06-08T20:53:10.925Z,17.50
2018-06-08T20:55:39.405Z,18.17
2018-06-08T20:58:17.981Z,19.45
2018-06-08T21:00:47.222Z,23.30
2018-06-08T21:03:15.780Z,20.75
2018-06-08T21:05:44.298Z,19.52
2018-06-08T21:08:12.795Z,19.17
2018-06-08T21:10:41.337Z,19.77
2018-06-08T21:13:09.797Z,19.75
2018-06-08T21:15:38.277Z,18.02
2018-06-08T21:18:13.152Z,19.50
2018-06-08T21:20:45.896Z,20.48
2018-06-08T21:23:15.139Z,19.92
2018-06-08T21:25:43.892Z,21.90
2018-06-08T21:28:12.916Z,24.80
2018-06-08T21:30:41.374Z,24.80
2018-06-08T21:33:09.821Z,22.58
2018-06-08T21:35:38.304Z,21.95
2018-06-08T21:38:06.810Z,22.95
2018-06-08T21:40:35.945Z,22.52
2018-06-08T21:43:04.476Z,21.87
2018-06-08T21:45:32.919Z,20.57
2018-06-08T21:48:01.435Z,21.05
2018-06-08T21:50:30.083Z,19.67
2018-06-08T21:52:59.038Z,19.87
2018-06-08T21:55:27.914Z,19.50
2018-06-08T21:57:56.363Z,19.55
2018-06-08T22:00:24.931Z,18.77
2018-06-08T22:02:53.734Z,19.02
2018-06-08T22:05:22.361Z,20.10
2018-06-08T22:07:50.886Z,18.30
2018-06-08T22:10:19.736Z,18.27
2018-06-08T22:12:49.129Z,18.75
2018-06-08T22:15:17.559Z,18.05
2018-06-08T22:17:46.105Z,18.48
2018-06-08T22:20:14.649Z,18.65
2018-06-08T22:22:43.107Z,18.48
2018-06-08T22:25:11.556Z,18.67
2018-06-08T22:27:40.090Z,18.02
2018-06-08T22:30:08.539Z,17.48
2018-06-08T22:32:38.408Z,19.07
2018-06-08T22:35:06.981Z,18.12
2018-06-08T22:37:35.495Z,18.77
2018-06-08T22:40:03.962Z,18.65
2018-06-08T22:42:32.430Z,19.17
2018-06-08T22:45:00.888Z,19.75
2018-06-08T22:47:29.931Z,19.75
2018-06-08T22:50:03.196Z,19.32
2018-06-08T22:52:31.604Z,18.82
2018-06-08T22:55:00.671Z,19.52
2018-06-08T22:57:29.594Z,20.88
2018-06-08T22:59:58.088Z,20.08
2018-06-08T23:02:31.493Z,20.62
2018-06-08T23:05:00.937Z,20.15
2018-06-08T23:07:29.384Z,20.00
2018-06-08T23:09:57.819Z,18.10
2018-06-08T23:12:26.735Z,19.42
2018-06-08T23:14:55.742Z,17.77
2018-06-08T23:17:25.062Z,17.92
2018-06-08T23:19:53.857Z,16.70
2018-06-08T23:22:22.294Z,17.90
2018-06-08T23:24:51.265Z,18.12
2018-06-08T23:27:20.297Z,18.25
2018-06-08T23:29:48.417Z,17.35
2018-06-08T23:32:16.852Z,18.90
2018-06-08T23:34:45.258Z,17.17
2018-06-08T23:37:13.677Z,17.07
2018-06-08T23:39:42.191Z,19.42
2018-06-08T23:42:10.632Z,18.15
2018-06-08T23:44:39.044Z,17.60
2018-06-08T23:47:07.507Z,17.37
2018-06-08T23:49:40.346Z,16.80
2018-06-08T23:52:09.513Z,16.77
2018-06-08T23:54:37.949Z,17.23
2018-06-08T23:57:06.472Z,16.37
2018-06-08T23:59:34.882Z,15.60
